YTA weather

Pembroke Airport
Pembroke, Ontario, Canada

Public forecast

Using degrees Celsius for public forecast. Weather courtesy of forecast.io.

Closest aviation weather report (METAR) to Pembroke Airport

Closest report is Petawawa Airport, 6.0 nm (11.1 km) NNW. Retrieved 2019/10/20 20:00 UTC (5 minutes ago):

CYWA 202000Z AUTO 13004KT 9SM CLR 12/04 A2993 RMK SLP139

Closest aviation forecast (TAF) to Pembroke Airport

Closest forecast is Petawawa Airport, 6.0 nm (11.1 km) NNW. Retrieved 2019/10/20 18:33 UTC (2 hours ago):

TAF CYWA 201730Z 2018/2106 12005KT P6SM BKN140 FM210000 VRB03KT P6SM SCT080 PROB30 2105/2106 1/2SM FG VV003 RMK FCST BASED ON AUTO OBS NXT FCST BY 210000Z